createdAt,value
2019-04-16T00:00:24.561Z,1009.02
2019-04-16T00:01:24.584Z,1009.06
2019-04-16T00:02:24.563Z,1009.05
2019-04-16T00:03:24.536Z,1009.04
2019-04-16T00:04:25.023Z,1009.03
2019-04-16T00:05:27.482Z,1009.03
2019-04-16T00:06:24.554Z,1008.99
2019-04-16T00:07:24.518Z,1008.96
2019-04-16T00:08:27.800Z,1008.95
2019-04-16T00:09:24.470Z,1008.97
2019-04-16T00:10:24.463Z,1008.93
2019-04-16T00:11:24.445Z,1008.91
2019-04-16T00:12:24.467Z,1008.87
2019-04-16T00:13:24.430Z,1008.85
2019-04-16T00:14:24.412Z,1008.87
2019-04-16T00:15:24.408Z,1008.83
2019-04-16T00:16:24.386Z,1008.82
2019-04-16T00:17:24.415Z,1008.82
2019-04-16T00:18:24.380Z,1008.79
2019-04-16T00:19:24.363Z,1008.75
2019-04-16T00:20:24.341Z,1008.70
2019-04-16T00:21:24.332Z,1008.77
2019-04-16T00:22:24.329Z,1008.70
2019-04-16T00:23:24.933Z,1008.69
2019-04-16T00:24:24.300Z,1008.74
2019-04-16T00:25:24.292Z,1008.70
2019-04-16T00:26:26.774Z,1008.67
2019-04-16T00:27:28.309Z,1008.65
2019-04-16T00:28:24.288Z,1008.68
2019-04-16T00:29:24.261Z,1008.65
2019-04-16T00:30:24.256Z,1008.65
2019-04-16T00:31:24.230Z,1008.68
2019-04-16T00:32:26.009Z,1008.64
2019-04-16T00:33:24.229Z,1008.62
2019-04-16T00:34:24.220Z,1008.69
2019-04-16T00:35:24.208Z,1008.65
2019-04-16T00:36:24.165Z,1008.60
2019-04-16T00:37:24.162Z,1008.59
2019-04-16T00:38:24.149Z,1008.56
2019-04-16T00:39:24.798Z,1008.58
2019-04-16T00:40:26.586Z,1008.55
2019-04-16T00:41:24.149Z,1008.54
2019-04-16T00:42:24.100Z,1008.53
2019-04-16T00:43:24.107Z,1008.52
2019-04-16T00:44:24.125Z,1008.55
2019-04-16T00:45:24.070Z,1008.56
2019-04-16T00:46:24.063Z,1008.57
2019-04-16T00:47:24.065Z,1008.56
2019-04-16T00:48:24.044Z,1008.49
2019-04-16T00:49:26.598Z,1008.57
2019-04-16T00:50:24.054Z,1008.55
2019-04-16T00:51:24.007Z,1008.57
2019-04-16T00:52:23.992Z,1008.57
2019-04-16T00:53:23.990Z,1008.54
2019-04-16T00:54:23.972Z,1008.54
2019-04-16T00:55:23.994Z,1008.52
2019-04-16T00:56:23.952Z,1008.49
2019-04-16T00:57:23.943Z,1008.56
2019-04-16T00:58:23.936Z,1008.54
2019-04-16T00:59:24.853Z,1008.56
2019-04-16T01:00:23.904Z,1008.53
2019-04-16T01:01:23.913Z,1008.55
2019-04-16T01:02:23.890Z,1008.54
2019-04-16T01:03:23.875Z,1008.56
2019-04-16T01:04:23.870Z,1008.55
2019-04-16T01:05:23.866Z,1008.55
2019-04-16T01:06:23.880Z,1008.59
2019-04-16T01:07:23.829Z,1008.50
2019-04-16T01:08:23.853Z,1008.59
2019-04-16T01:09:23.815Z,1008.52
2019-04-16T01:10:23.821Z,1008.53
2019-04-16T01:11:23.787Z,1008.49
2019-04-16T01:12:23.778Z,1008.51
2019-04-16T01:13:24.557Z,1008.48
2019-04-16T01:14:24.231Z,1008.45
2019-04-16T01:15:23.784Z,1008.47
2019-04-16T01:16:23.746Z,1008.45
2019-04-16T01:17:23.729Z,1008.51
2019-04-16T01:18:23.712Z,1008.55
2019-04-16T01:19:23.703Z,1008.54
2019-04-16T01:20:23.717Z,1008.53
2019-04-16T01:21:23.677Z,1008.56
2019-04-16T01:22:23.668Z,1008.48
2019-04-16T01:23:23.660Z,1008.49
2019-04-16T01:24:23.653Z,1008.44
2019-04-16T01:25:24.058Z,1008.52
2019-04-16T01:26:24.193Z,1008.48
2019-04-16T01:27:23.621Z,1008.49
2019-04-16T01:28:23.620Z,1008.41
2019-04-16T01:29:23.594Z,1008.49
2019-04-16T01:30:23.646Z,1008.45
2019-04-16T01:31:23.619Z,1008.42
2019-04-16T01:32:23.583Z,1008.43
2019-04-16T01:33:23.553Z,1008.43
2019-04-16T01:34:23.542Z,1008.38
2019-04-16T01:35:23.533Z,1008.44
2019-04-16T01:36:23.750Z,1008.45
2019-04-16T01:37:25.862Z,1008.46
2019-04-16T01:38:27.696Z,1008.43
2019-04-16T01:39:24.483Z,1008.37
2019-04-16T01:40:23.489Z,1008.40
2019-04-16T01:41:23.494Z,1008.50
2019-04-16T01:42:24.199Z,1008.49
2019-04-16T01:43:25.877Z,1008.47
2019-04-16T01:44:23.450Z,1008.42
2019-04-16T01:45:23.459Z,1008.41
2019-04-16T01:46:23.435Z,1008.48
2019-04-16T01:47:23.409Z,1008.34
2019-04-16T01:48:23.406Z,1008.40
2019-04-16T01:49:23.385Z,1008.44
2019-04-16T01:50:23.364Z,1008.43
2019-04-16T01:51:23.362Z,1008.42
2019-04-16T01:52:23.342Z,1008.46
2019-04-16T01:53:23.389Z,1008.40
2019-04-16T01:54:23.480Z,1008.44
2019-04-16T01:55:25.869Z,1008.40
2019-04-16T01:56:28.019Z,1008.43
2019-04-16T01:57:24.290Z,1008.49
2019-04-16T01:58:23.321Z,1008.48
2019-04-16T01:59:23.286Z,1008.51
2019-04-16T02:00:23.263Z,1008.46
2019-04-16T02:01:23.257Z,1008.46
2019-04-16T02:02:23.256Z,1008.42
2019-04-16T02:03:23.258Z,1008.54
2019-04-16T02:04:23.257Z,1008.46
2019-04-16T02:05:23.950Z,1008.43
2019-04-16T02:06:25.852Z,1008.54
2019-04-16T02:07:27.675Z,1008.42
2019-04-16T02:08:23.179Z,1008.44
2019-04-16T02:09:23.871Z,1008.52
2019-04-16T02:10:23.194Z,1008.52
2019-04-16T02:11:23.135Z,1008.48
2019-04-16T02:12:23.132Z,1008.45
2019-04-16T02:13:23.116Z,1008.47
2019-04-16T02:14:23.111Z,1008.44
2019-04-16T02:15:23.179Z,1008.45
2019-04-16T02:16:25.151Z,1008.52
2019-04-16T02:17:26.771Z,1008.46
2019-04-16T02:18:23.064Z,1008.49
2019-04-16T02:19:23.145Z,1008.46
2019-04-16T02:20:23.045Z,1008.48
2019-04-16T02:21:23.040Z,1008.50
2019-04-16T02:22:23.017Z,1008.55
2019-04-16T02:23:23.029Z,1008.51
2019-04-16T02:24:23.008Z,1008.50
2019-04-16T02:25:22.998Z,1008.54
2019-04-16T02:26:23.502Z,1008.54
2019-04-16T02:27:25.823Z,1008.50
2019-04-16T02:28:27.969Z,1008.53
2019-04-16T02:29:23.939Z,1008.56
2019-04-16T02:30:22.929Z,1008.53
2019-04-16T02:31:22.917Z,1008.53
2019-04-16T02:32:22.964Z,1008.55
2019-04-16T02:33:22.898Z,1008.57
2019-04-16T02:34:22.893Z,1008.58
2019-04-16T02:35:22.878Z,1008.57
2019-04-16T02:36:22.867Z,1008.57
2019-04-16T02:37:22.890Z,1008.63
2019-04-16T02:38:22.847Z,1008.60
2019-04-16T02:39:46.300Z,1008.56
2019-04-16T02:40:23.828Z,1008.59
2019-04-16T02:41:24.433Z,1008.55
2019-04-16T02:42:22.806Z,1008.53
2019-04-16T02:43:22.810Z,1008.48
2019-04-16T02:44:22.774Z,1008.49
2019-04-16T02:45:24.338Z,1008.60
2019-04-16T02:46:22.760Z,1008.44
2019-04-16T02:47:22.805Z,1008.57
2019-04-16T02:48:22.836Z,1008.49
2019-04-16T02:49:24.560Z,1008.52
2019-04-16T02:50:26.954Z,1008.50
2019-04-16T02:51:23.698Z,1008.48
2019-04-16T02:52:22.699Z,1008.52
2019-04-16T02:53:24.562Z,1008.49
2019-04-16T02:54:22.692Z,1008.50
2019-04-16T02:55:22.663Z,1008.47
2019-04-16T02:56:22.642Z,1008.47
2019-04-16T02:57:26.657Z,1008.52
2019-04-16T02:58:23.623Z,1008.51
2019-04-16T02:59:22.646Z,1008.47
2019-04-16T03:00:22.642Z,1008.45
2019-04-16T03:01:22.599Z,1008.42
2019-04-16T03:02:23.663Z,1008.50
2019-04-16T03:03:24.950Z,1008.50
2019-04-16T03:04:26.654Z,1008.50
2019-04-16T03:05:22.570Z,1008.48
2019-04-16T03:06:22.542Z,1008.48
2019-04-16T03:07:22.527Z,1008.49
2019-04-16T03:08:22.514Z,1008.51
2019-04-16T03:09:22.515Z,1008.45
2019-04-16T03:10:22.525Z,1008.47
2019-04-16T03:11:22.479Z,1008.43
2019-04-16T03:12:22.480Z,1008.44
2019-04-16T03:13:23.333Z,1008.50
2019-04-16T03:14:22.446Z,1008.44
2019-04-16T03:15:22.494Z,1008.38
2019-04-16T03:16:22.455Z,1008.42
2019-04-16T03:17:22.421Z,1008.38
2019-04-16T03:18:22.464Z,1008.37
2019-04-16T03:19:22.411Z,1008.38
2019-04-16T03:20:23.897Z,1008.32
2019-04-16T03:21:24.547Z,1008.39
2019-04-16T03:22:22.356Z,1008.38
2019-04-16T03:23:22.353Z,1008.35
2019-04-16T03:24:23.290Z,1008.37
2019-04-16T03:25:22.332Z,1008.35
2019-04-16T03:26:22.354Z,1008.36
2019-04-16T03:27:23.017Z,1008.34
2019-04-16T03:28:23.579Z,1008.32
2019-04-16T03:29:22.291Z,1008.34
2019-04-16T03:30:22.269Z,1008.34
2019-04-16T03:31:23.609Z,1008.35
2019-04-16T03:32:22.305Z,1008.37
2019-04-16T03:33:22.248Z,1008.38
2019-04-16T03:34:22.705Z,1008.32
2019-04-16T03:35:26.537Z,1008.40
2019-04-16T03:36:22.207Z,1008.33
2019-04-16T03:37:22.219Z,1008.33
2019-04-16T03:38:22.187Z,1008.34
2019-04-16T03:39:22.189Z,1008.31
2019-04-16T03:40:25.607Z,1008.31
2019-04-16T03:41:24.888Z,1008.32
2019-04-16T03:42:24.526Z,1008.32
2019-04-16T03:43:23.219Z,1008.31
2019-04-16T03:44:22.126Z,1008.30
2019-04-16T03:45:22.107Z,1008.34
2019-04-16T03:46:22.098Z,1008.36
2019-04-16T03:47:22.087Z,1008.33
2019-04-16T03:48:23.476Z,1008.35
2019-04-16T03:49:24.606Z,1008.39
2019-04-16T03:50:23.050Z,1008.38
2019-04-16T03:51:22.039Z,1008.41
2019-04-16T03:52:22.037Z,1008.37
2019-04-16T03:53:22.021Z,1008.35
2019-04-16T03:54:22.601Z,1008.42
2019-04-16T03:55:25.440Z,1008.41
2019-04-16T03:56:22.031Z,1008.41
2019-04-16T03:57:21.975Z,1008.34
2019-04-16T03:58:21.973Z,1008.41
2019-04-16T03:59:22.007Z,1008.39
2019-04-16T04:00:21.959Z,1008.42
2019-04-16T04:01:21.928Z,1008.43
2019-04-16T04:02:23.056Z,1008.40
2019-04-16T04:03:25.850Z,1008.42
2019-04-16T04:04:21.902Z,1008.45
2019-04-16T04:05:21.926Z,1008.44
2019-04-16T04:06:21.875Z,1008.42
2019-04-16T04:07:21.892Z,1008.41
2019-04-16T04:08:21.855Z,1008.37
2019-04-16T04:09:22.317Z,1008.38
2019-04-16T04:10:30.335Z,1008.40
2019-04-16T04:11:22.824Z,1008.36
2019-04-16T04:12:21.817Z,1008.39
2019-04-16T04:13:21.803Z,1008.38
2019-04-16T04:14:23.437Z,1008.42
2019-04-16T04:15:26.087Z,1008.34
2019-04-16T04:16:22.788Z,1008.37
2019-04-16T04:17:21.765Z,1008.34
2019-04-16T04:18:21.741Z,1008.36
2019-04-16T04:19:21.735Z,1008.36
2019-04-16T04:20:21.763Z,1008.35
2019-04-16T04:21:22.615Z,1008.40
2019-04-16T04:22:22.838Z,1008.37
2019-04-16T04:23:21.693Z,1008.39
2019-04-16T04:24:21.670Z,1008.38
2019-04-16T04:25:21.677Z,1008.41
2019-04-16T04:26:21.659Z,1008.37
2019-04-16T04:27:21.696Z,1008.41
2019-04-16T04:28:21.637Z,1008.40
2019-04-16T04:29:24.681Z,1008.45
2019-04-16T04:30:21.622Z,1008.38
2019-04-16T04:31:21.594Z,1008.46
2019-04-16T04:32:21.621Z,1008.46
2019-04-16T04:33:21.574Z,1008.41
2019-04-16T04:34:21.562Z,1008.47
2019-04-16T04:35:22.302Z,1008.47
2019-04-16T04:36:23.053Z,1008.41
2019-04-16T04:37:22.552Z,1008.45
2019-04-16T04:38:21.532Z,1008.44
2019-04-16T04:39:21.512Z,1008.46
2019-04-16T04:40:21.497Z,1008.44
2019-04-16T04:41:23.114Z,1008.41
2019-04-16T04:42:21.579Z,1008.37
2019-04-16T04:43:21.507Z,1008.46
2019-04-16T04:44:21.461Z,1008.41
2019-04-16T04:45:21.452Z,1008.48
2019-04-16T04:46:21.435Z,1008.43
2019-04-16T04:47:21.424Z,1008.49
2019-04-16T04:48:24.154Z,1008.43
2019-04-16T04:49:21.419Z,1008.36
2019-04-16T04:50:21.386Z,1008.36
2019-04-16T04:51:21.373Z,1008.40
2019-04-16T04:52:21.362Z,1008.37
2019-04-16T04:53:21.357Z,1008.36
2019-04-16T04:54:22.561Z,1008.45
2019-04-16T04:55:23.443Z,1008.37
2019-04-16T04:56:21.319Z,1008.42
2019-04-16T04:57:21.320Z,1008.35
2019-04-16T04:58:21.304Z,1008.35
2019-04-16T04:59:21.283Z,1008.40
2019-04-16T05:00:21.308Z,1008.36
2019-04-16T05:01:21.258Z,1008.29
2019-04-16T05:02:21.280Z,1008.32
2019-04-16T05:03:21.350Z,1008.35
2019-04-16T05:04:21.447Z,1008.35
2019-04-16T05:05:24.261Z,1008.36
2019-04-16T05:06:21.212Z,1008.35
2019-04-16T05:07:21.195Z,1008.38
2019-04-16T05:08:21.190Z,1008.31
2019-04-16T05:09:21.180Z,1008.38
2019-04-16T05:10:21.191Z,1008.34
2019-04-16T05:11:21.157Z,1008.40
2019-04-16T05:12:22.163Z,1008.35
2019-04-16T05:13:23.964Z,1008.37
2019-04-16T05:14:21.124Z,1008.39
2019-04-16T05:15:21.133Z,1008.30
2019-04-16T05:16:21.137Z,1008.31
2019-04-16T05:17:21.083Z,1008.34
2019-04-16T05:18:21.081Z,1008.40
2019-04-16T05:19:21.057Z,1008.35
2019-04-16T05:20:21.050Z,1008.37
2019-04-16T05:21:21.065Z,1008.47
2019-04-16T05:22:22.040Z,1008.40
2019-04-16T05:23:24.831Z,1008.36
2019-04-16T05:24:21.001Z,1008.37
2019-04-16T05:25:20.991Z,1008.41
2019-04-16T05:26:21.046Z,1008.45
2019-04-16T05:27:20.998Z,1008.42
2019-04-16T05:28:20.966Z,1008.45
2019-04-16T05:29:21.003Z,1008.42
2019-04-16T05:30:22.146Z,1008.42
2019-04-16T05:31:24.181Z,1008.49
2019-04-16T05:32:20.945Z,1008.50
2019-04-16T05:33:20.907Z,1008.44
2019-04-16T05:34:21.049Z,1008.52
2019-04-16T05:35:20.974Z,1008.46
2019-04-16T05:36:21.784Z,1008.48
2019-04-16T05:37:21.041Z,1008.46
2019-04-16T05:38:23.791Z,1008.47
2019-04-16T05:39:20.845Z,1008.47
2019-04-16T05:40:20.823Z,1008.48
2019-04-16T05:41:22.449Z,1008.40
2019-04-16T05:42:22.385Z,1008.45
2019-04-16T05:43:22.722Z,1008.43
2019-04-16T05:44:20.787Z,1008.41
2019-04-16T05:45:20.778Z,1008.42
2019-04-16T05:46:20.761Z,1008.46
2019-04-16T05:47:20.946Z,1008.55
2019-04-16T05:48:21.620Z,1008.48
2019-04-16T05:49:24.584Z,1008.53
2019-04-16T05:50:21.714Z,1008.46
2019-04-16T05:51:20.708Z,1008.51
2019-04-16T05:52:20.846Z,1008.49
2019-04-16T05:53:20.686Z,1008.46
2019-04-16T05:54:20.707Z,1008.53
2019-04-16T05:55:20.694Z,1008.45
2019-04-16T05:56:23.747Z,1008.49
2019-04-16T05:57:25.626Z,1008.47
2019-04-16T05:58:21.628Z,1008.53
2019-04-16T05:59:20.630Z,1008.50
2019-04-16T06:00:20.648Z,1008.46
2019-04-16T06:01:20.596Z,1008.46
2019-04-16T06:02:20.618Z,1008.47
2019-04-16T06:03:22.315Z,1008.49
2019-04-16T06:04:24.255Z,1008.52
2019-04-16T06:05:20.578Z,1008.51
2019-04-16T06:06:20.537Z,1008.50
2019-04-16T06:07:20.534Z,1008.53
2019-04-16T06:08:20.543Z,1008.52
2019-04-16T06:09:20.505Z,1008.56
2019-04-16T06:10:20.495Z,1008.53
2019-04-16T06:11:28.105Z,1008.55
2019-04-16T06:12:21.505Z,1008.56
2019-04-16T06:13:20.483Z,1008.57
2019-04-16T06:14:20.450Z,1008.48
2019-04-16T06:15:22.340Z,1008.50
2019-04-16T06:16:23.901Z,1008.53
2019-04-16T06:17:21.508Z,1008.47
2019-04-16T06:18:20.408Z,1008.53
2019-04-16T06:19:20.400Z,1008.50
2019-04-16T06:20:21.428Z,1008.57
2019-04-16T06:21:22.620Z,1008.47
2019-04-16T06:22:21.417Z,1008.56
2019-04-16T06:23:20.588Z,1008.54
2019-04-16T06:24:20.345Z,1008.54
2019-04-16T06:25:20.454Z,1008.50
2019-04-16T06:26:20.338Z,1008.51
2019-04-16T06:27:20.347Z,1008.51
2019-04-16T06:28:20.368Z,1008.53
2019-04-16T06:30:38.315Z,1008.56
2019-04-16T06:31:39.221Z,1008.47
2019-04-16T06:32:41.411Z,1008.50
2019-04-16T06:33:37.791Z,1008.49
2019-04-16T06:34:38.770Z,1008.60
2019-04-16T06:35:43.356Z,1008.58
2019-04-16T06:36:39.461Z,1008.56
2019-04-16T06:37:37.769Z,1008.51
2019-04-16T06:38:48.240Z,1008.56
2019-04-16T06:39:37.393Z,1008.49
2019-04-16T06:40:37.383Z,1008.54
2019-04-16T06:41:41.902Z,1008.51
2019-04-16T06:42:38.611Z,1008.50
2019-04-16T06:43:37.385Z,1008.55
2019-04-16T06:44:37.392Z,1008.52
2019-04-16T06:45:37.980Z,1008.53
2019-04-16T06:46:40.004Z,1008.50
2019-04-16T06:47:41.865Z,1008.51
2019-04-16T06:48:37.321Z,1008.48
2019-04-16T06:49:39.498Z,1008.51
2019-04-16T06:50:40.534Z,1008.55
2019-04-16T06:51:37.271Z,1008.55
2019-04-16T06:52:37.291Z,1008.50
2019-04-16T06:53:37.242Z,1008.56
2019-04-16T06:54:37.260Z,1008.53
2019-04-16T06:55:37.257Z,1008.55
2019-04-16T06:56:37.377Z,1008.50
2019-04-16T06:57:37.199Z,1008.55
2019-04-16T06:58:50.142Z,1008.57
2019-04-16T06:59:37.379Z,1008.53
2019-04-16T07:00:37.187Z,1008.48
2019-04-16T07:01:41.520Z,1008.50
2019-04-16T07:02:37.763Z,1008.56
2019-04-16T07:03:37.145Z,1008.48
2019-04-16T07:04:37.165Z,1008.44
2019-04-16T07:05:37.124Z,1008.45
2019-04-16T07:06:37.207Z,1008.43
2019-04-16T07:07:39.840Z,1008.43
2019-04-16T07:08:39.303Z,1008.41
2019-04-16T07:09:41.702Z,1008.42
2019-04-16T07:10:44.461Z,1008.54
2019-04-16T07:11:37.063Z,1008.49
2019-04-16T07:12:38.497Z,1008.43
2019-04-16T07:13:41.960Z,1008.41
2019-04-16T07:14:37.017Z,1008.49
2019-04-16T07:15:37.393Z,1008.43
2019-04-16T07:16:36.997Z,1008.50
2019-04-16T07:17:40.169Z,1008.46
2019-04-16T07:18:38.690Z,1008.43
2019-04-16T07:19:39.403Z,1008.50
2019-04-16T07:20:37.980Z,1008.48
2019-04-16T07:21:36.960Z,1008.60
2019-04-16T07:22:36.933Z,1008.54
2019-04-16T07:23:37.151Z,1008.51
2019-04-16T07:24:37.867Z,1008.54
2019-04-16T07:25:42.080Z,1008.50
2019-04-16T07:26:39.419Z,1008.52
2019-04-16T07:27:38.551Z,1008.50
2019-04-16T07:28:36.977Z,1008.54
2019-04-16T07:29:36.872Z,1008.57
2019-04-16T07:30:40.074Z,1008.49
2019-04-16T07:31:36.871Z,1008.47
2019-04-16T07:32:36.830Z,1008.44
2019-04-16T07:33:36.838Z,1008.40
2019-04-16T07:34:36.808Z,1008.48
2019-04-16T07:35:36.806Z,1008.51
2019-04-16T07:36:36.773Z,1008.45
2019-04-16T07:37:36.761Z,1008.48
2019-04-16T07:38:36.790Z,1008.39
2019-04-16T07:39:37.840Z,1008.39
2019-04-16T07:40:39.778Z,1008.47
2019-04-16T07:41:36.740Z,1008.45
2019-04-16T07:42:50.969Z,1008.47
2019-04-16T07:43:37.729Z,1008.44
2019-04-16T07:44:39.290Z,1008.46
2019-04-16T07:45:36.679Z,1008.46
2019-04-16T07:46:36.682Z,1008.50
2019-04-16T07:47:36.688Z,1008.51
2019-04-16T07:48:36.646Z,1008.50
2019-04-16T07:49:36.657Z,1008.43
2019-04-16T07:50:36.618Z,1008.50
2019-04-16T07:51:36.786Z,1008.47
2019-04-16T07:52:38.935Z,1008.42
2019-04-16T07:53:36.589Z,1008.51
2019-04-16T07:54:36.641Z,1008.47
2019-04-16T07:55:36.579Z,1008.42
2019-04-16T07:56:36.555Z,1008.41
2019-04-16T07:57:36.558Z,1008.43
2019-04-16T07:58:36.549Z,1008.41
2019-04-16T07:59:36.529Z,1008.42
2019-04-16T08:00:40.294Z,1008.40
2019-04-16T08:01:36.510Z,1008.47
2019-04-16T08:02:36.487Z,1008.46
2019-04-16T08:03:36.492Z,1008.44
2019-04-16T08:04:36.574Z,1008.44
2019-04-16T08:05:37.722Z,1008.49
2019-04-16T08:06:36.477Z,1008.41
2019-04-16T08:07:36.451Z,1008.43
2019-04-16T08:08:36.454Z,1008.48
2019-04-16T08:09:36.418Z,1008.51
2019-04-16T08:10:36.431Z,1008.48
2019-04-16T08:11:36.448Z,1008.40
2019-04-16T08:12:36.382Z,1008.46
2019-04-16T08:13:36.386Z,1008.36
2019-04-16T08:14:36.371Z,1008.43
2019-04-16T08:15:36.365Z,1008.42
2019-04-16T08:16:47.221Z,1008.40
2019-04-16T08:17:36.341Z,1008.38
2019-04-16T08:18:36.322Z,1008.44
2019-04-16T08:19:37.526Z,1008.39
2019-04-16T08:20:36.307Z,1008.42
2019-04-16T08:21:36.290Z,1008.36
2019-04-16T08:22:39.712Z,1008.38
2019-04-16T08:23:39.199Z,1008.36
2019-04-16T08:24:36.323Z,1008.35
2019-04-16T08:25:36.233Z,1008.34
2019-04-16T08:26:36.236Z,1008.39
2019-04-16T08:27:36.209Z,1008.42
2019-04-16T08:28:36.207Z,1008.40
2019-04-16T08:29:36.217Z,1008.42
2019-04-16T08:30:39.292Z,1008.33
2019-04-16T08:31:36.178Z,1008.32
2019-04-16T08:32:36.169Z,1008.39
2019-04-16T08:33:36.145Z,1008.36
2019-04-16T08:34:36.185Z,1008.41
2019-04-16T08:35:36.125Z,1008.37
2019-04-16T08:36:36.109Z,1008.40
2019-04-16T08:37:48.412Z,1008.43
2019-04-16T08:38:36.105Z,1008.45
2019-04-16T08:39:36.850Z,1008.38
2019-04-16T08:40:36.085Z,1008.38
2019-04-16T08:41:36.067Z,1008.43
2019-04-16T08:42:44.421Z,1008.39
2019-04-16T08:43:36.044Z,1008.48
2019-04-16T08:44:36.477Z,1008.45
2019-04-16T08:45:39.174Z,1008.40
2019-04-16T08:46:35.998Z,1008.38
2019-04-16T08:47:35.990Z,1008.38
2019-04-16T08:48:35.982Z,1008.39
2019-04-16T08:49:36.019Z,1008.36
2019-04-16T08:50:35.998Z,1008.44
2019-04-16T08:51:37.726Z,1008.38
2019-04-16T08:52:38.598Z,1008.41
2019-04-16T08:53:35.942Z,1008.40
2019-04-16T08:54:35.962Z,1008.36
2019-04-16T08:55:35.927Z,1008.34
2019-04-16T08:56:36.611Z,1008.39
2019-04-16T08:57:35.885Z,1008.40
2019-04-16T08:58:38.405Z,1008.32
2019-04-16T08:59:35.909Z,1008.44
2019-04-16T09:00:35.851Z,1008.35
2019-04-16T09:01:35.863Z,1008.34
2019-04-16T09:02:35.865Z,1008.37
2019-04-16T09:03:35.827Z,1008.39
2019-04-16T09:04:35.806Z,1008.31
2019-04-16T09:05:35.794Z,1008.35
2019-04-16T09:06:35.788Z,1008.30
2019-04-16T09:07:35.810Z,1008.39
2019-04-16T09:08:35.758Z,1008.45
2019-04-16T09:09:35.762Z,1008.38
2019-04-16T09:10:35.751Z,1008.35
2019-04-16T09:11:36.301Z,1008.33
2019-04-16T09:12:41.226Z,1008.41
2019-04-16T09:13:35.745Z,1008.40
2019-04-16T09:14:35.700Z,1008.39
2019-04-16T09:15:35.689Z,1008.41
2019-04-16T09:16:35.683Z,1008.40
2019-04-16T09:17:35.669Z,1008.37
2019-04-16T09:18:35.703Z,1008.41
2019-04-16T09:19:35.637Z,1008.38
2019-04-16T09:20:37.785Z,1008.33
2019-04-16T09:21:35.631Z,1008.39
2019-04-16T09:22:48.286Z,1008.43
2019-04-16T09:23:36.561Z,1008.44
2019-04-16T09:24:40.452Z,1008.38
2019-04-16T09:25:36.579Z,1008.44
2019-04-16T09:26:35.566Z,1008.43
2019-04-16T09:27:35.558Z,1008.43
2019-04-16T09:28:35.556Z,1008.35
2019-04-16T09:29:35.581Z,1008.38
2019-04-16T09:30:35.530Z,1008.35
2019-04-16T09:31:35.514Z,1008.34
2019-04-16T09:32:35.499Z,1008.38
2019-04-16T09:33:35.578Z,1008.42
2019-04-16T09:34:39.185Z,1008.37
2019-04-16T09:35:35.483Z,1008.37
2019-04-16T09:36:35.470Z,1008.52
2019-04-16T09:37:35.861Z,1008.38
2019-04-16T09:38:35.446Z,1008.37
2019-04-16T09:39:35.635Z,1008.40
2019-04-16T09:40:35.417Z,1008.29
2019-04-16T09:41:35.441Z,1008.31
2019-04-16T09:42:35.411Z,1008.42
2019-04-16T09:43:35.373Z,1008.40
2019-04-16T09:44:35.774Z,1008.32
2019-04-16T09:45:37.315Z,1008.40
2019-04-16T09:46:51.881Z,1008.38
2019-04-16T09:47:36.334Z,1008.35
2019-04-16T09:48:35.594Z,1008.44
2019-04-16T09:49:37.633Z,1008.33
2019-04-16T09:50:35.315Z,1008.37
2019-04-16T09:51:35.299Z,1008.31
2019-04-16T09:52:35.297Z,1008.36
2019-04-16T09:53:40.075Z,1008.34
2019-04-16T09:54:36.313Z,1008.31
2019-04-16T09:55:35.288Z,1008.40
2019-04-16T09:56:35.248Z,1008.35
2019-04-16T09:57:35.227Z,1008.35
2019-04-16T09:58:37.772Z,1008.35
2019-04-16T09:59:36.200Z,1008.32
2019-04-16T10:00:35.217Z,1008.34
2019-04-16T10:01:35.194Z,1008.34
2019-04-16T10:02:35.181Z,1008.36
2019-04-16T10:03:35.163Z,1008.41
2019-04-16T10:04:35.164Z,1008.41
2019-04-16T10:05:35.179Z,1008.33
2019-04-16T10:06:35.180Z,1008.40
2019-04-16T10:07:39.847Z,1008.38
2019-04-16T10:08:35.114Z,1008.43
2019-04-16T10:09:35.106Z,1008.40
2019-04-16T10:10:35.133Z,1008.32
2019-04-16T10:11:35.862Z,1008.38
2019-04-16T10:12:35.107Z,1008.30
2019-04-16T10:13:36.231Z,1008.24
2019-04-16T10:14:35.051Z,1008.33
2019-04-16T10:15:35.029Z,1008.31
2019-04-16T10:16:35.035Z,1008.29
2019-04-16T10:17:35.049Z,1008.31
2019-04-16T10:18:35.971Z,1008.31
2019-04-16T10:19:34.992Z,1008.26
2019-04-16T10:20:34.970Z,1008.26
2019-04-16T10:21:34.964Z,1008.24
2019-04-16T10:22:34.977Z,1008.30
2019-04-16T10:23:34.973Z,1008.30
2019-04-16T10:24:34.941Z,1008.25
2019-04-16T10:25:34.916Z,1008.26
2019-04-16T10:26:34.906Z,1008.32
2019-04-16T10:27:34.924Z,1008.27
2019-04-16T10:28:37.044Z,1008.28
2019-04-16T10:29:34.877Z,1008.15
2019-04-16T10:30:34.886Z,1008.26
2019-04-16T10:31:34.905Z,1008.17
2019-04-16T10:32:34.848Z,1008.21
2019-04-16T10:33:34.832Z,1008.20
2019-04-16T10:34:36.453Z,1008.17
2019-04-16T10:35:34.824Z,1008.19
2019-04-16T10:36:37.984Z,1008.14
2019-04-16T10:37:34.811Z,1008.12
2019-04-16T10:38:34.772Z,1008.11
2019-04-16T10:39:34.827Z,1008.15
2019-04-16T10:40:34.748Z,1008.13
2019-04-16T10:41:34.754Z,1008.16
2019-04-16T10:42:34.729Z,1008.13
2019-04-16T10:43:44.482Z,1008.22
2019-04-16T10:44:34.720Z,1008.14
2019-04-16T10:45:34.738Z,1008.12
2019-04-16T10:46:34.703Z,1008.06
2019-04-16T10:47:35.824Z,1008.08
2019-04-16T10:48:34.680Z,1008.19
2019-04-16T10:49:34.668Z,1008.14
2019-04-16T10:50:34.673Z,1008.05
2019-04-16T10:51:34.654Z,1008.15
2019-04-16T10:52:34.612Z,1008.11
2019-04-16T10:53:34.598Z,1008.07
2019-04-16T10:54:37.350Z,1008.12
2019-04-16T10:55:34.599Z,1008.11
2019-04-16T10:56:34.621Z,1008.07
2019-04-16T10:57:34.554Z,1008.06
2019-04-16T10:58:34.566Z,1008.10
2019-04-16T10:59:34.534Z,1008.07
2019-04-16T11:00:34.521Z,1008.09
2019-04-16T11:01:35.130Z,1007.90
2019-04-16T11:02:34.522Z,1008.03
2019-04-16T11:03:35.383Z,1007.97
2019-04-16T11:04:34.502Z,1008.03
2019-04-16T11:05:34.502Z,1007.93
2019-04-16T11:06:34.485Z,1007.92
2019-04-16T11:07:34.455Z,1007.89
2019-04-16T11:08:34.454Z,1007.92
2019-04-16T11:09:34.433Z,1007.98
2019-04-16T11:10:34.496Z,1007.94
2019-04-16T11:11:34.442Z,1007.99
2019-04-16T11:12:34.401Z,1007.95
2019-04-16T11:13:34.410Z,1007.90
2019-04-16T11:14:34.384Z,1007.95
2019-04-16T11:15:34.365Z,1007.92
2019-04-16T11:16:35.962Z,1007.89
2019-04-16T11:17:34.358Z,1007.89
2019-04-16T11:18:34.329Z,1007.93
2019-04-16T11:19:34.349Z,1007.89
2019-04-16T11:20:34.354Z,1007.88
2019-04-16T11:21:34.300Z,1007.89
2019-04-16T11:22:34.373Z,1007.96
2019-04-16T11:23:34.306Z,1007.89
2019-04-16T11:24:34.264Z,1007.96
2019-04-16T11:25:34.258Z,1007.97
2019-04-16T11:26:34.266Z,1007.89
2019-04-16T11:27:34.225Z,1007.91
2019-04-16T11:28:34.253Z,1007.85
2019-04-16T11:29:34.201Z,1007.85
2019-04-16T11:30:34.205Z,1007.82
2019-04-16T11:31:34.198Z,1007.87
2019-04-16T11:32:39.220Z,1007.85
2019-04-16T11:33:37.998Z,1007.80
2019-04-16T11:34:34.224Z,1007.92
2019-04-16T11:35:34.159Z,1007.86
2019-04-16T11:36:34.135Z,1007.88
2019-04-16T11:37:36.280Z,1007.79
2019-04-16T11:38:34.128Z,1007.84
2019-04-16T11:39:34.134Z,1007.81
2019-04-16T11:40:34.110Z,1007.84
2019-04-16T11:41:34.120Z,1007.79
2019-04-16T11:42:34.068Z,1007.82
2019-04-16T11:43:34.110Z,1007.84
2019-04-16T11:44:34.064Z,1007.87
2019-04-16T11:45:34.071Z,1007.76
2019-04-16T11:46:34.078Z,1007.80
2019-04-16T11:47:34.880Z,1007.80
2019-04-16T11:48:37.237Z,1007.85
2019-04-16T11:49:34.029Z,1007.76
2019-04-16T11:50:35.996Z,1007.78
2019-04-16T11:51:33.982Z,1007.80
2019-04-16T11:52:33.988Z,1007.77
2019-04-16T11:53:33.977Z,1007.76
2019-04-16T11:54:33.964Z,1007.77
2019-04-16T11:55:33.916Z,1007.75
2019-04-16T11:56:33.913Z,1007.84
2019-04-16T11:57:34.082Z,1007.76
2019-04-16T11:58:33.892Z,1007.86
2019-04-16T11:59:33.940Z,1007.87
2019-04-16T12:00:33.891Z,1007.85
2019-04-16T12:01:33.994Z,1007.84
2019-04-16T12:02:33.869Z,1007.80
2019-04-16T12:03:36.570Z,1007.83
2019-04-16T12:04:33.823Z,1007.87
2019-04-16T12:05:33.847Z,1007.77
2019-04-16T12:06:33.882Z,1007.79